Time;durP1;ratioP1;P1;durP2;ratioP2;P2;SDS_P1;SDS_P2;PMS_P1;PMS_P2;Temp;Humidity;BMP_temperature;BMP_pressure;BME280_temperature;BME280_humidity;BME280_pressure;Samples;Min_cycle;Max_cycle;Signal;HPM_P1;HPM_P2
2023/03/04 00:00:55;;;;;;;24.63;17.27;;;;;;;3.10;93.49;152161.19;5035257;28;20476;-77
2023/03/04 00:03:22;;;;;;;24.60;17.63;;;;;;;3.00;92.86;152135.47;5018883;28;20447;-77
2023/03/04 00:05:48;;;;;;;25.10;17.20;;;;;;;2.97;93.12;152129.03;4992673;28;20511;-77
2023/03/04 00:08:15;;;;;;;26.87;18.43;;;;;;;2.90;93.01;152109.75;5009860;28;20495;-77
2023/03/04 00:10:41;;;;;;;26.30;17.83;;;;;;;2.88;94.04;152104.59;4997506;28;20472;-77
2023/03/04 00:13:08;;;;;;;27.87;18.03;;;;;;;2.88;93.31;152105.91;5011359;28;20532;-77
2023/03/04 00:15:36;;;;;;;25.70;17.43;;;;;;;2.76;93.85;152075.00;5007752;28;20482;-77
2023/03/04 00:18:03;;;;;;;26.00;16.43;;;;;;;2.67;93.56;152050.56;4994419;28;20549;-77
2023/03/04 00:20:30;;;;;;;24.03;16.60;;;;;;;2.54;94.56;152018.44;5006675;28;20441;-78
2023/03/04 00:22:57;;;;;;;22.60;17.00;;;;;;;2.40;94.37;151983.72;5010065;28;20539;-77
2023/03/04 00:25:23;;;;;;;22.93;16.70;;;;;;;2.36;96.08;151972.09;5003191;28;20674;-77
2023/03/04 00:27:50;;;;;;;25.60;18.00;;;;;;;2.28;95.74;151952.81;5036611;28;20456;-77
2023/03/04 00:30:17;;;;;;;26.50;18.13;;;;;;;2.24;96.72;151942.56;5006840;28;20476;-77
2023/03/04 00:32:45;;;;;;;28.33;18.73;;;;;;;2.26;97.51;151947.69;5033968;28;20491;-77
2023/03/04 00:35:12;;;;;;;24.47;17.10;;;;;;;2.20;97.11;151932.25;5003967;28;20784;-78
2023/03/04 00:37:38;;;;;;;24.60;17.47;;;;;;;2.27;96.70;151950.28;5006452;28;20450;-77
2023/03/04 00:40:06;;;;;;;31.20;18.23;;;;;;;2.28;96.89;151952.81;5017749;28;20940;-77
2023/03/04 00:42:33;;;;;;;27.97;17.70;;;;;;;2.27;97.19;151948.97;4998094;28;20575;-77
2023/03/04 00:44:59;;;;;;;32.17;19.70;;;;;;;2.20;96.65;151932.25;4990444;28;20534;-77
2023/03/04 00:47:26;;;;;;;24.80;17.20;;;;;;;2.16;96.96;151920.69;5022362;28;20470;-77
2023/03/04 00:49:54;;;;;;;28.40;17.93;;;;;;;2.21;96.89;151934.84;5027236;28;20457;-77
2023/03/04 00:52:21;;;;;;;28.57;17.73;;;;;;;2.19;96.69;151928.41;5021374;28;20494;-77
2023/03/04 00:54:48;;;;;;;28.67;17.40;;;;;;;2.13;97.18;151914.25;5006383;28;20494;-77
2023/03/04 00:57:14;;;;;;;24.70;17.17;;;;;;;2.12;96.13;151911.69;5043349;28;20444;-78
2023/03/04 00:59:42;;;;;;;25.40;17.47;;;;;;;2.13;97.73;151912.97;5042715;28;20985;-77
2023/03/04 01:02:09;;;;;;;26.87;17.30;;;;;;;2.08;97.42;151900.13;4994362;28;20447;-78
2023/03/04 01:04:36;;;;;;;25.93;17.20;;;;;;;2.10;98.13;151906.53;5005978;28;20534;-77
2023/03/04 01:07:04;;;;;;;28.20;17.90;;;;;;;2.12;96.35;151911.69;5030117;28;20542;-77
2023/03/04 01:09:31;;;;;;;25.50;16.17;;;;;;;2.16;96.11;151921.97;5013974;28;20542;-77
2023/03/04 01:11:58;;;;;;;26.30;17.10;;;;;;;2.16;96.26;151920.69;5009198;28;20562;-77
2023/03/04 01:14:25;;;;;;;25.50;17.17;;;;;;;2.10;95.99;151905.25;5037804;28;20462;-77
2023/03/04 01:16:52;;;;;;;24.30;16.17;;;;;;;2.06;96.64;151896.28;4980243;28;20449;-77
2023/03/04 01:19:19;;;;;;;22.40;16.23;;;;;;;1.99;96.85;151878.25;5031383;28;20470;-77
2023/03/04 01:21:45;;;;;;;20.97;16.20;;;;;;;1.97;96.80;151873.13;4980033;28;20544;-77
2023/03/04 01:24:13;;;;;;;24.00;16.57;;;;;;;1.92;96.67;151858.97;5018678;28;20552;-78
2023/03/04 01:26:40;;;;;;;24.17;17.03;;;;;;;1.88;96.53;151849.97;4993765;28;20448;-77
2023/03/04 01:29:07;;;;;;;22.80;17.07;;;;;;;1.80;96.56;151830.69;5008377;28;20517;-77
2023/03/04 01:31:34;;;;;;;25.03;17.83;;;;;;;1.74;96.94;151814.00;5011524;28;20814;-77
2023/03/04 01:34:01;;;;;;;19.97;15.07;;;;;;;1.70;97.29;151805.00;4973790;28;20451;-77
2023/03/04 01:36:28;;;;;;;25.13;17.10;;;;;;;1.62;97.83;151783.13;4976587;28;20439;-77
2023/03/04 01:38:55;;;;;;;25.90;16.50;;;;;;;1.55;97.55;151766.47;5015597;28;20546;-77
2023/03/04 01:41:25;;;;;;;25.77;16.93;;;;;;;1.53;97.44;151760.03;4995889;28;20454;-78
2023/03/04 01:43:52;;;;;;;20.80;15.50;;;;;;;1.54;97.49;151763.88;4995333;28;20495;-77
2023/03/04 01:46:20;;;;;;;25.90;16.30;;;;;;;1.55;98.88;151765.16;4985012;28;20471;-78
2023/03/04 01:48:47;;;;;;;25.93;17.43;;;;;;;1.55;98.21;151765.16;4981603;28;20459;-78
2023/03/04 01:51:15;;;;;;;28.30;17.40;;;;;;;1.54;97.52;151762.56;5015237;28;20467;-78
2023/03/04 01:53:43;;;;;;;25.50;16.30;;;;;;;1.60;98.45;151778.00;4984182;28;20873;-78
2023/03/04 01:56:15;;;;;;;24.27;16.23;;;;;;;1.51;97.98;151754.91;5000686;28;20446;-77
2023/03/04 01:58:44;;;;;;;24.87;16.67;;;;;;;1.40;97.94;151726.63;4993121;28;20470;-78
2023/03/04 02:01:11;;;;;;;27.20;17.30;;;;;;;1.29;98.14;151698.38;5016939;28;20469;-77
2023/03/04 02:03:39;;;;;;;20.37;14.17;;;;;;;1.24;98.60;151688.06;5036575;28;20461;-77
2023/03/04 02:06:05;;;;;;;24.73;15.97;;;;;;;1.20;98.89;151676.50;5040374;28;20930;-77
2023/03/04 02:08:32;;;;;;;25.93;17.20;;;;;;;1.17;99.83;151670.09;4996221;28;20903;-77
2023/03/04 02:10:59;;;;;;;25.53;16.13;;;;;;;1.17;99.99;151670.09;5020478;28;20465;-77
2023/03/04 02:13:26;;;;;;;23.17;16.07;;;;;;;1.10;99.40;151652.13;5032665;28;20549;-77
2023/03/04 02:15:54;;;;;;;22.40;16.10;;;;;;;1.03;99.01;151634.09;5005687;28;20461;-77
2023/03/04 02:18:22;;;;;;;28.37;16.60;;;;;;;1.03;98.77;151632.88;4998492;28;20447;-77
2023/03/04 02:20:55;;;;;;;25.00;15.93;;;;;;;1.04;98.86;151635.41;5002109;28;20451;-77
2023/03/04 02:23:26;;;;;;;27.60;17.60;;;;;;;1.04;99.41;151636.69;5033749;28;20457;-77
2023/03/04 02:26:12;;;;;;;22.70;15.50;;;;;;;1.02;98.88;151631.56;5002805;28;20485;-78
2023/03/04 02:28:39;;;;;;;26.93;16.40;;;;;;;1.03;99.30;151634.09;5008385;28;20457;-77
2023/03/04 02:31:06;;;;;;;20.67;15.83;;;;;;;1.04;99.61;151636.69;5003798;28;20481;-77
2023/03/04 02:33:33;;;;;;;31.13;17.10;;;;;;;0.97;99.20;151617.44;5021801;28;20456;-78
2023/03/04 02:36:00;;;;;;;23.10;16.80;;;;;;;0.97;100.00;151618.72;5016020;28;20966;-78
2023/03/04 02:38:27;;;;;;;26.83;18.10;;;;;;;0.90;99.70;151600.72;5022736;28;20724;-77
2023/03/04 02:40:54;;;;;;;21.10;16.13;;;;;;;0.89;100.00;151598.19;5007425;28;20436;-78
2023/03/04 02:43:22;;;;;;;25.40;16.70;;;;;;;0.91;99.99;151603.31;4998545;28;20490;-78
2023/03/04 02:45:50;;;;;;;22.97;15.33;;;;;;;0.87;99.76;151593.06;4984936;28;20485;-78
2023/03/04 02:48:20;;;;;;;25.80;15.90;;;;;;;0.87;100.00;151593.06;5024077;28;20951;-78
2023/03/04 02:50:49;;;;;;;21.57;15.63;;;;;;;0.79;100.00;151571.22;5045288;28;20493;-77
2023/03/04 02:53:16;;;;;;;25.53;16.53;;;;;;;0.69;99.60;151546.78;4986115;28;20487;-78
2023/03/04 02:55:43;;;;;;;26.10;15.80;;;;;;;0.57;99.33;151516.00;5009071;28;20453;-78
2023/03/04 02:58:13;;;;;;;28.10;16.90;;;;;;;0.55;99.88;151510.88;5007193;28;20800;-77
2023/03/04 03:00:41;;;;;;;25.63;16.23;;;;;;;0.50;100.00;151499.28;5021561;28;20447;-77
2023/03/04 03:03:08;;;;;;;21.80;15.37;;;;;;;0.48;99.71;151492.88;5002206;28;20460;-77
2023/03/04 03:05:36;;;;;;;19.77;13.87;;;;;;;0.50;99.99;151498.03;5043426;28;20482;-76
2023/03/04 03:08:03;;;;;;;26.47;15.77;;;;;;;0.56;100.00;151513.41;5028849;28;20457;-77
2023/03/04 03:10:30;;;;;;;28.60;16.93;;;;;;;0.55;100.00;151512.16;4981864;28;20480;-77
2023/03/04 03:12:57;;;;;;;22.90;15.80;;;;;;;0.56;100.00;151513.41;5021989;28;20808;-77
2023/03/04 03:15:24;;;;;;;24.10;15.23;;;;;;;0.57;100.00;151516.00;5027974;28;20454;-77
2023/03/04 03:17:52;;;;;;;19.80;13.57;;;;;;;0.53;100.00;151505.75;5004477;28;20514;-77
2023/03/04 03:20:19;;;;;;;17.90;13.97;;;;;;;0.50;100.00;151499.28;5010498;28;20478;-77
2023/03/04 03:22:47;;;;;;;23.50;16.30;;;;;;;0.53;100.00;151505.75;5011269;28;20445;-77
2023/03/04 03:25:15;;;;;;;24.23;15.60;;;;;;;0.41;99.97;151476.22;5015679;28;20806;-77
2023/03/04 03:27:42;;;;;;;24.47;15.50;;;;;;;0.37;100.00;151465.91;4985111;28;20454;-77
2023/03/04 03:30:11;;;;;;;24.73;13.87;;;;;;;0.40;100.00;151472.31;5005763;28;20437;-77
2023/03/04 03:32:38;;;;;;;20.40;14.83;;;;;;;0.26;100.00;151436.41;5034764;28;20855;-77
2023/03/04 03:35:06;;;;;;;25.50;15.27;;;;;;;0.20;100.00;151421.00;5018413;28;20446;-77
2023/03/04 03:37:33;;;;;;;25.37;15.43;;;;;;;0.19;100.00;151419.72;4993502;28;20469;-77
2023/03/04 03:40:00;;;;;;;21.70;15.50;;;;;;;0.16;100.00;151412.00;5026531;28;20529;-77
2023/03/04 03:42:27;;;;;;;21.20;15.53;;;;;;;0.10;100.00;151395.34;5025780;28;20565;-77
2023/03/04 03:44:54;;;;;;;24.47;16.47;;;;;;;0.04;100.00;151379.94;5031332;28;20466;-77
2023/03/04 03:47:21;;;;;;;20.30;15.33;;;;;;;-0.03;100.00;151364.53;5010738;28;20458;-77
2023/03/04 03:49:48;;;;;;;22.77;15.90;;;;;;;-0.08;100.00;151351.69;4996039;28;20429;-77
2023/03/04 03:52:16;;;;;;;22.33;14.40;;;;;;;-0.16;100.00;151331.16;5030183;28;20561;-77
2023/03/04 03:54:43;;;;;;;25.40;15.03;;;;;;;-0.23;100.00;151313.22;5007253;28;20485;-77
2023/03/04 03:57:09;;;;;;;22.20;15.10;;;;;;;-0.28;100.00;151300.41;5008466;28;20772;-77
2023/03/04 03:59:36;;;;;;;22.77;15.33;;;;;;;-0.26;100.00;151305.50;5011870;28;20446;-77
2023/03/04 04:02:03;;;;;;;23.13;16.60;;;;;;;-0.28;100.00;151300.41;5005765;28;20460;-77
2023/03/04 04:04:30;;;;;;;26.93;15.83;;;;;;;-0.32;100.00;151290.09;4999516;28;20516;-77
2023/03/04 04:06:56;;;;;;;21.00;14.13;;;;;;;-0.32;100.00;151288.84;4996917;28;20553;-77
2023/03/04 04:09:24;;;;;;;20.67;14.37;;;;;;;-0.34;100.00;151283.69;5031554;28;20507;-77
2023/03/04 04:11:51;;;;;;;22.47;15.20;;;;;;;-0.40;100.00;151269.63;5028454;28;20462;-78
2023/03/04 04:14:18;;;;;;;29.80;17.40;;;;;;;-0.42;100.00;151263.16;5008339;28;20467;-77
2023/03/04 04:16:44;;;;;;;20.17;14.97;;;;;;;-0.50;100.00;151242.69;5025604;28;20539;-77
2023/03/04 04:19:16;;;;;;;25.80;16.37;;;;;;;-0.52;100.00;151237.53;5011358;28;20541;-77
2023/03/04 04:21:43;;;;;;;24.17;15.60;;;;;;;-0.60;100.00;151218.28;5012519;28;20952;-77
2023/03/04 04:24:10;;;;;;;26.07;16.27;;;;;;;-0.65;100.00;151205.47;5025187;28;20575;-77
2023/03/04 04:26:38;;;;;;;26.17;16.70;;;;;;;-0.70;100.00;151192.66;5001295;28;20450;-77
2023/03/04 04:29:04;;;;;;;22.47;15.97;;;;;;;-0.76;100.00;151178.53;5006821;28;20959;-77
2023/03/04 04:31:31;;;;;;;26.53;16.90;;;;;;;-0.75;100.00;151179.84;5026119;28;20449;-77
2023/03/04 04:33:58;;;;;;;26.97;15.70;;;;;;;-0.80;100.00;151167.00;5011535;28;20440;-77
2023/03/04 04:36:24;;;;;;;25.70;15.97;;;;;;;-0.79;100.00;151169.56;4994830;28;20439;-77
2023/03/04 04:38:51;;;;;;;22.00;15.07;;;;;;;-0.84;100.00;151156.72;4999757;28;20544;-77
2023/03/04 04:41:20;;;;;;;24.20;15.67;;;;;;;-0.90;100.00;151141.38;5007336;28;20991;-77
2023/03/04 04:43:49;;;;;;;23.30;15.33;;;;;;;-0.96;100.00;151125.97;5032984;28;21032;-77
2023/03/04 04:46:16;;;;;;;21.57;15.30;;;;;;;-0.94;100.00;151131.09;5027150;28;20440;-77
2023/03/04 04:48:43;;;;;;;26.33;15.50;;;;;;;-0.97;100.00;151123.41;5036144;28;20459;-77
2023/03/04 04:51:09;;;;;;;24.67;15.37;;;;;;;-1.00;100.00;151117.00;5025789;28;20460;-77
2023/03/04 04:53:36;;;;;;;25.23;17.00;;;;;;;-0.91;100.00;151138.78;5009044;28;20495;-77
2023/03/04 04:56:09;;;;;;;26.30;14.80;;;;;;;-0.93;100.00;151133.69;5023690;28;21052;-77
2023/03/04 04:58:36;;;;;;;23.43;14.90;;;;;;;-0.90;100.00;151141.38;5024987;28;20476;-77
2023/03/04 05:01:05;;;;;;;24.30;16.00;;;;;;;-0.91;100.00;151138.78;5002693;28;20465;-77
2023/03/04 05:03:33;;;;;;;23.10;13.80;;;;;;;-0.91;100.00;151138.78;5004070;28;20443;-77
2023/03/04 05:05:59;;;;;;;22.77;14.70;;;;;;;-0.98;100.00;151122.09;5016614;28;20448;-77
2023/03/04 05:08:26;;;;;;;19.77;14.23;;;;;;;-1.02;100.00;151111.88;5039418;28;20465;-77
2023/03/04 05:10:53;;;;;;;23.87;15.33;;;;;;;-1.02;100.00;151110.59;5000600;28;20461;-77
2023/03/04 05:13:20;;;;;;;20.70;14.07;;;;;;;-1.03;100.00;151109.28;4992281;28;20469;-77
2023/03/04 05:15:47;;;;;;;23.87;15.23;;;;;;;-1.01;100.00;151114.47;4992374;28;20470;-77
2023/03/04 05:18:15;;;;;;;25.70;14.70;;;;;;;-1.01;100.00;151113.16;5003962;28;20508;-77
2023/03/04 05:20:41;;;;;;;22.60;13.20;;;;;;;-1.08;100.00;151095.19;5023747;28;20460;-77
2023/03/04 05:23:08;;;;;;;21.40;14.07;;;;;;;-1.00;100.00;151117.00;5007205;28;20449;-77
2023/03/04 05:25:35;;;;;;;26.20;14.90;;;;;;;-0.96;100.00;151125.97;5007109;28;20448;-77
2023/03/04 05:28:03;;;;;;;25.17;16.40;;;;;;;-0.93;100.00;151133.69;5008744;28;20897;-77
2023/03/04 05:30:30;;;;;;;23.80;13.70;;;;;;;-0.91;100.00;151138.78;5032637;28;21054;-77
2023/03/04 05:32:57;;;;;;;21.13;14.77;;;;;;;-0.85;100.00;151154.19;5011832;28;20482;-77
2023/03/04 05:35:25;;;;;;;21.20;15.20;;;;;;;-0.86;100.00;151151.63;5025289;28;21021;-77
2023/03/04 05:37:52;;;;;;;26.87;15.20;;;;;;;-0.86;100.00;151152.91;4999031;28;20806;-77
2023/03/04 05:40:19;;;;;;;28.40;15.43;;;;;;;-0.86;100.00;151151.63;4977967;28;20979;-77
2023/03/04 05:42:46;;;;;;;23.00;14.40;;;;;;;-0.85;100.00;151154.19;5040811;28;20473;-77
2023/03/04 05:45:12;;;;;;;22.47;14.80;;;;;;;-0.80;100.00;151167.00;5041886;28;20543;-77
2023/03/04 05:47:39;;;;;;;22.40;15.07;;;;;;;-0.73;100.00;151184.94;5004631;28;20453;-78
2023/03/04 05:50:07;;;;;;;23.77;15.37;;;;;;;-0.59;100.00;151220.88;5002191;28;20451;-77
2023/03/04 05:52:35;;;;;;;25.67;14.17;;;;;;;-0.73;100.00;151184.94;5025608;28;20994;-77
2023/03/04 05:55:02;;;;;;;24.40;15.40;;;;;;;-0.66;100.00;151204.19;5039232;28;20533;-77
2023/03/04 05:57:29;;;;;;;23.50;14.70;;;;;;;-0.44;100.00;151258.03;4999955;28;20588;-77
2023/03/04 05:59:55;;;;;;;24.90;14.67;;;;;;;-0.38;100.00;151274.75;5044556;28;20507;-77
2023/03/04 06:02:22;;;;;;;20.63;15.20;;;;;;;-0.50;100.00;151242.69;5016222;28;20459;-77
2023/03/04 06:04:49;;;;;;;21.90;15.07;;;;;;;-0.47;100.00;151250.34;5005151;28;20553;-77
2023/03/04 06:07:16;;;;;;;20.80;13.90;;;;;;;-0.50;100.00;151243.94;5003825;28;20974;-77
2023/03/04 06:09:44;;;;;;;18.80;13.50;;;;;;;-0.52;100.00;151237.53;5032951;28;20488;-77
2023/03/04 06:12:11;;;;;;;24.23;13.23;;;;;;;-0.56;100.00;151228.59;5036031;28;20479;-77
2023/03/04 06:14:38;;;;;;;28.23;15.40;;;;;;;-0.60;100.00;151218.28;5038874;28;20544;-77
2023/03/04 06:17:05;;;;;;;24.03;15.53;;;;;;;-0.64;100.00;151208.06;5036397;28;20490;-77
2023/03/04 06:19:31;;;;;;;24.00;14.23;;;;;;;-0.59;100.00;151220.88;5036289;28;20449;-77
2023/03/04 06:21:58;;;;;;;24.13;14.70;;;;;;;-0.50;100.00;151243.94;5034579;28;20549;-77
2023/03/04 06:24:27;;;;;;;22.07;15.10;;;;;;;-0.57;100.00;151226.00;5006934;28;20882;-77
2023/03/04 06:26:55;;;;;;;26.40;15.67;;;;;;;-0.53;100.00;151236.22;5022869;28;20454;-77
2023/03/04 06:29:22;;;;;;;22.87;13.43;;;;;;;-0.54;100.00;151233.69;5040391;28;20856;-78
2023/03/04 06:31:48;;;;;;;23.87;13.80;;;;;;;-0.49;100.00;151246.53;5041595;28;20539;-77
2023/03/04 06:34:15;;;;;;;24.43;14.30;;;;;;;-0.51;100.00;151240.09;5036974;28;20477;-77
2023/03/04 06:36:42;;;;;;;27.73;15.27;;;;;;;-0.42;100.00;151263.16;5036452;28;20599;-78
2023/03/04 06:39:09;;;;;;;29.60;16.30;;;;;;;-0.29;100.00;151297.81;5039195;28;20467;-77
2023/03/04 06:41:36;;;;;;;22.20;13.73;;;;;;;-0.14;100.00;151335.03;5038197;28;20566;-78
2023/03/04 06:44:04;;;;;;;29.80;15.67;;;;;;;-0.09;100.00;151347.88;5007901;28;20486;-77
2023/03/04 06:46:33;;;;;;;27.03;14.83;;;;;;;-0.11;100.00;151344.00;5035793;28;20853;-77
2023/03/04 06:48:59;;;;;;;24.07;14.73;;;;;;;-0.14;100.00;151336.34;5006782;28;20949;-77
2023/03/04 06:51:26;;;;;;;29.13;14.50;;;;;;;-0.12;100.00;151341.44;5040612;28;20460;-77
2023/03/04 06:53:53;;;;;;;21.33;13.00;;;;;;;-0.03;100.00;151364.53;5018966;28;20495;-77
2023/03/04 06:56:20;;;;;;;22.40;15.00;;;;;;;-0.01;100.00;151369.69;5007780;28;20544;-77
2023/03/04 06:58:47;;;;;;;24.40;14.63;;;;;;;-0.12;100.00;151341.44;4987207;28;20457;-77
2023/03/04 07:01:16;;;;;;;23.03;14.60;;;;;;;-0.07;100.00;151354.28;5007381;28;20534;-77
2023/03/04 07:03:44;;;;;;;24.37;14.80;;;;;;;-0.12;100.00;151341.44;5039549;28;20964;-77
2023/03/04 07:06:11;;;;;;;23.10;13.30;;;;;;;-0.07;100.00;151352.97;5006009;28;20564;-77
2023/03/04 07:08:38;;;;;;;24.47;14.03;;;;;;;0.04;100.00;151381.22;5042976;28;20932;-77
2023/03/04 07:11:05;;;;;;;25.00;14.83;;;;;;;0.25;100.00;151433.84;5000261;28;21013;-77
2023/03/04 07:13:34;;;;;;;23.03;14.07;;;;;;;0.06;100.00;151385.06;4998849;28;20482;-77
2023/03/04 07:16:01;;;;;;;28.60;15.30;;;;;;;0.04;100.00;151381.22;5006715;28;20460;-77
2023/03/04 07:18:29;;;;;;;26.10;15.33;;;;;;;0.05;100.00;151382.50;5040555;28;20894;-77
2023/03/04 07:20:56;;;;;;;21.90;14.50;;;;;;;0.18;100.00;151417.19;5039849;28;20550;-77
2023/03/04 07:23:23;;;;;;;26.60;15.37;;;;;;;0.13;100.00;151403.06;5004789;28;20569;-77
2023/03/04 07:25:50;;;;;;;25.30;15.90;;;;;;;0.14;100.00;151405.59;5002146;28;20801;-77
2023/03/04 07:28:17;;;;;;;28.47;16.90;;;;;;;0.14;100.00;151405.59;5007903;28;20454;-78
2023/03/04 07:30:44;;;;;;;21.67;13.70;;;;;;;0.20;100.00;151421.00;5041222;28;20463;-78
2023/03/04 07:33:11;;;;;;;21.23;13.13;;;;;;;0.22;100.00;151426.13;5004132;28;20488;-77
2023/03/04 07:35:39;;;;;;;21.97;13.80;;;;;;;0.24;100.00;151432.53;5037871;28;20924;-78
2023/03/04 07:38:06;;;;;;;22.93;13.73;;;;;;;0.27;100.00;151440.25;4987266;28;20493;-77
2023/03/04 07:40:33;;;;;;;23.57;14.37;;;;;;;0.18;100.00;151415.88;4980109;28;20443;-77
2023/03/04 07:43:00;;;;;;;25.93;15.77;;;;;;;0.08;100.00;151390.22;5019182;28;20480;-77
2023/03/04 07:45:29;;;;;;;28.03;15.53;;;;;;;0.13;100.00;151403.06;5001568;28;20450;-77
2023/03/04 07:47:58;;;;;;;21.43;14.07;;;;;;;0.16;100.00;151412.00;5037915;28;20489;-77
2023/03/04 07:50:25;;;;;;;21.87;14.10;;;;;;;0.19;100.00;151418.41;5007306;28;20446;-76
2023/03/04 07:52:53;;;;;;;21.13;13.80;;;;;;;0.17;100.00;151413.28;5005733;28;20593;-77
2023/03/04 07:55:20;;;;;;;23.17;14.37;;;;;;;0.29;100.00;151444.13;5038261;28;20540;-75
2023/03/04 07:57:47;;;;;;;21.07;13.20;;;;;;;0.20;100.00;151421.00;5037847;28;20571;-77
2023/03/04 08:00:16;;;;;;;24.30;14.17;;;;;;;0.09;100.00;151392.75;5006129;28;20533;-77
2023/03/04 08:02:43;;;;;;;18.00;13.00;;;;;;;0.18;100.00;151417.19;5040023;28;20475;-77
2023/03/04 08:05:10;;;;;;;20.90;14.13;;;;;;;0.32;100.00;151453.06;5008182;28;20562;-77
2023/03/04 08:07:36;;;;;;;20.87;13.80;;;;;;;0.33;100.00;151454.38;5037199;28;20589;-77
2023/03/04 08:10:06;;;;;;;23.60;14.53;;;;;;;0.20;100.00;151421.00;5036968;28;20507;-77
2023/03/04 08:12:33;;;;;;;23.90;13.53;;;;;;;0.29;100.00;151444.13;5035824;28;20904;-77
2023/03/04 08:15:00;;;;;;;17.53;12.13;;;;;;;0.19;100.00;151418.41;5005104;28;20519;-77
2023/03/04 08:17:28;;;;;;;24.73;13.57;;;;;;;0.11;100.00;151397.94;5020944;28;20455;-78
2023/03/04 08:19:55;;;;;;;24.67;14.77;;;;;;;0.04;100.00;151379.94;5008555;28;21040;-77
2023/03/04 08:22:22;;;;;;;22.53;14.90;;;;;;;-0.01;100.00;151368.41;5003177;28;20556;-78
2023/03/04 08:24:48;;;;;;;20.50;14.43;;;;;;;-0.02;100.00;151367.09;5016928;28;20473;-76
2023/03/04 08:27:16;;;;;;;25.00;13.47;;;;;;;-0.05;100.00;151359.41;5039482;28;20453;-76
2023/03/04 08:29:43;;;;;;;21.03;14.23;;;;;;;0.02;100.00;151376.09;5038431;28;20932;-76
2023/03/04 08:32:10;;;;;;;22.10;14.70;;;;;;;0.17;100.00;151414.59;5004834;28;20487;-76
2023/03/04 08:34:39;;;;;;;24.83;14.50;;;;;;;0.14;100.00;151405.59;4978982;28;20496;-76
2023/03/04 08:37:06;;;;;;;20.57;13.80;;;;;;;0.07;100.00;151387.63;5038240;28;20453;-77
2023/03/04 08:39:34;;;;;;;24.57;13.83;;;;;;;0.31;100.00;151449.25;5005115;28;20481;-76
2023/03/04 08:42:01;;;;;;;24.77;14.20;;;;;;;0.39;100.00;151469.78;5035906;28;20453;-76
2023/03/04 08:44:29;;;;;;;18.97;11.87;;;;;;;0.35;100.00;151460.78;5037703;28;20484;-76
2023/03/04 08:46:56;;;;;;;21.30;12.20;;;;;;;0.37;100.00;151464.66;5038841;28;20449;-77
2023/03/04 08:49:23;;;;;;;19.50;11.43;;;;;;;0.27;100.00;151440.25;5039875;28;20455;-89
2023/03/04 08:51:49;;;;;;;21.03;13.00;;;;;;;0.35;100.00;151460.78;5039605;28;20466;-88
2023/03/04 08:54:17;;;;;;;25.43;13.00;;;;;;;0.43;100.00;151481.31;5006593;28;20578;-89
2023/03/04 08:56:44;;;;;;;22.50;12.67;;;;;;;0.44;100.00;151482.63;5006286;28;20541;-89
2023/03/04 08:59:11;;;;;;;21.17;12.77;;;;;;;0.42;100.00;151477.50;4983640;28;20511;-88
2023/03/04 09:01:39;;;;;;;20.87;11.53;;;;;;;0.39;100.00;151471.09;4987027;28;20453;-89
2023/03/04 09:04:06;;;;;;;18.03;11.80;;;;;;;0.34;100.00;151456.97;4986907;28;20500;-88
2023/03/04 09:06:33;;;;;;;24.07;13.53;;;;;;;0.56;100.00;151514.69;4979176;28;20522;-89
2023/03/04 09:08:59;;;;;;;17.47;12.20;;;;;;;0.39;100.00;151469.78;5035910;28;20900;-87
2023/03/04 09:11:26;;;;;;;19.70;11.87;;;;;;;0.44;100.00;151482.63;4995767;28;20596;-88
2023/03/04 09:13:53;;;;;;;22.43;13.57;;;;;;;0.53;100.00;151505.75;5008007;28;20482;-88
2023/03/04 09:16:19;;;;;;;22.40;13.07;;;;;;;0.45;100.00;151485.22;5003452;28;20450;-88
2023/03/04 09:18:48;;;;;;;22.17;13.03;;;;;;;0.47;100.00;151491.63;5037687;28;20484;-88
2023/03/04 09:21:14;;;;;;;22.43;13.50;;;;;;;0.57;100.00;151517.28;5033141;28;20496;-88
2023/03/04 09:23:41;;;;;;;22.23;13.10;;;;;;;0.71;100.00;151550.66;4982742;28;20535;-88
2023/03/04 09:26:16;;;;;;;23.70;13.43;;;;;;;0.51;100.00;151500.56;5021937;28;20814;-88
2023/03/04 09:28:43;;;;;;;27.73;13.47;;;;;;;0.57;100.00;151516.00;4985367;28;20454;-88
2023/03/04 09:31:13;;;;;;;21.70;13.30;;;;;;;0.46;100.00;151487.75;5019427;28;21829;-88
2023/03/04 09:33:41;;;;;;;22.73;13.67;;;;;;;0.47;100.00;151490.34;4998485;28;20479;-88
2023/03/04 09:36:11;;;;;;;23.23;13.03;;;;;;;0.44;100.00;151483.91;4994677;28;20453;-88
2023/03/04 09:38:39;;;;;;;23.40;14.23;;;;;;;0.53;100.00;151507.00;4988193;28;20501;-88
2023/03/04 09:41:08;;;;;;;20.60;12.77;;;;;;;0.64;100.00;151532.72;5021898;28;20556;-87
2023/03/04 09:43:35;;;;;;;21.10;12.97;;;;;;;0.72;100.00;151554.50;5019904;28;20549;-87
2023/03/04 09:46:04;;;;;;;19.50;12.37;;;;;;;0.68;100.00;151544.25;5000858;28;20450;-88
2023/03/04 09:48:40;;;;;;;21.77;13.63;;;;;;;0.94;100.00;151611.03;5033843;28;20586;-87
2023/03/04 09:51:19;;;;;;;19.93;13.40;;;;;;;0.77;100.00;151567.34;5014031;28;20461;-88
2023/03/04 09:53:53;;;;;;;26.00;13.77;;;;;;;0.74;100.00;151559.66;5022622;28;20469;-87
2023/03/04 09:56:19;;;;;;;20.67;12.80;;;;;;;0.81;100.00;151577.63;5021304;28;21004;-87
2023/03/04 09:58:53;;;;;;;20.87;13.00;;;;;;;0.90;100.00;151600.72;5031986;28;20462;-87
2023/03/04 10:01:22;;;;;;;17.50;11.67;;;;;;;0.93;100.00;151608.44;5004519;28;20454;-87
2023/03/04 10:03:51;;;;;;;21.53;14.20;;;;;;;1.05;100.00;151639.28;4988178;28;20455;-87
2023/03/04 10:06:21;;;;;;;19.07;13.43;;;;;;;0.96;100.00;151616.16;5036013;28;20464;-87
2023/03/04 10:08:54;;;;;;;22.07;13.10;;;;;;;1.04;100.00;151636.69;5004689;28;20486;-88
2023/03/04 10:11:25;;;;;;;19.70;13.20;;;;;;;1.11;100.00;151654.66;5038803;28;20461;-87
2023/03/04 10:14:03;;;;;;;25.23;13.63;;;;;;;1.04;100.00;151636.69;5021039;28;20830;-88
2023/03/04 10:16:35;;;;;;;23.33;15.10;;;;;;;1.05;100.00;151639.28;4984089;28;20812;-89
2023/03/04 10:19:09;;;;;;;21.07;13.67;;;;;;;1.13;100.00;151658.53;5000611;28;20455;-89
2023/03/04 10:21:40;;;;;;;20.63;14.03;;;;;;;1.17;99.49;151670.09;5004017;28;20445;-89
2023/03/04 10:24:12;;;;;;;24.20;14.87;;;;;;;1.31;96.84;151704.78;4996251;28;20975;-89
2023/03/04 10:26:40;;;;;;;21.13;14.23;;;;;;;1.52;93.63;151758.75;5004683;28;20521;-90
2023/03/04 10:29:08;;;;;;;24.03;15.23;;;;;;;1.43;94.81;151734.34;5003767;28;20451;-89
2023/03/04 10:31:36;;;;;;;25.00;15.30;;;;;;;1.47;97.37;151745.91;4997330;28;20474;-90
2023/03/04 10:34:03;;;;;;;25.43;15.17;;;;;;;1.46;96.42;151743.31;4985510;28;20478;-90
2023/03/04 10:36:40;;;;;;;24.70;14.90;;;;;;;1.67;93.88;151795.97;4987614;28;21010;-90
2023/03/04 10:39:09;;;;;;;33.90;18.63;;;;;;;1.91;92.08;151857.69;5020623;28;20458;-90
2023/03/04 10:41:37;;;;;;;20.70;13.70;;;;;;;1.79;92.47;151826.84;4997346;28;21178;-91
2023/03/04 10:44:10;;;;;;;28.77;15.17;;;;;;;1.81;93.96;151832.00;4986248;28;20506;-91
2023/03/04 10:46:38;;;;;;;25.10;14.67;;;;;;;1.86;91.06;151844.84;5025325;28;20447;-91
2023/03/04 10:49:05;;;;;;;27.23;15.57;;;;;;;1.81;92.24;151832.00;5000889;28;20479;-88
2023/03/04 10:51:32;;;;;;;25.70;16.23;;;;;;;1.96;89.91;151869.28;5002676;28;20499;-91
2023/03/04 10:54:04;;;;;;;22.67;14.60;;;;;;;1.80;91.50;151830.69;4992550;28;20482;-91
2023/03/04 10:56:37;;;;;;;22.77;14.97;;;;;;;1.98;91.96;151875.72;4984330;28;20450;-91
2023/03/04 10:59:43;;;;;;;26.10;16.37;;;;;;;1.88;92.80;151849.97;5029531;28;20893;-91
2023/03/04 11:02:31;;;;;;;25.80;15.70;;;;;;;1.95;91.96;151868.00;4986219;28;20465;-91
2023/03/04 11:05:08;;;;;;;27.43;17.80;;;;;;;2.11;88.28;151909.13;4983862;28;20550;-92
2023/03/04 11:07:39;;;;;;;27.53;16.30;;;;;;;1.97;90.20;151873.13;5034188;28;20451;-92
2023/03/04 11:10:17;;;;;;;25.13;15.83;;;;;;;2.05;88.53;151892.41;4988227;28;20883;-91
2023/03/04 11:12:48;;;;;;;27.53;16.30;;;;;;;1.87;90.76;151847.41;4992854;28;20528;-91